CheckWX is a tool to help pilots better visualize weather data.  It is not intended as a substitute for an official pre-flight weather briefing.

11:58:33 UTC

KLRF METAR
Little Rock AFB Airport
Jacksonville, Arkansas, USA
Current

1 hour ago

KLRF 051056Z AUTO 00000KT 10SM CLR 09/08 A3007 RMK AO2 SLP185 T00850080 $
Observed
Apr-5 @ 10:56 UTC
Visibility
Flight Rules
VFR
Cloud Levels
  • Clear skies
Temperature
C / 46°F
Dewpoint
C / 46°F
Humidity
100%
Altimeter
30.07" Hg
Pressure
1018.32 hPa
Previous

2 hours ago

KLRF 050956Z AUTO 00000KT 10SM CLR 10/09 A3005 RMK AO2 SLP178 T00950087 $
Observed
Apr-5 @ 09:56 UTC
Visibility
Flight Rules
VFR
Cloud Levels
  • Clear skies
Temperature
10°C / 50°F
Dewpoint
C / 48°F
Humidity
94%
Altimeter
30.05" Hg
Pressure
1017.62 hPa
Previous

3 hours ago

KLRF 050856Z AUTO 34003KT 10SM CLR 10/09 A3005 RMK AO2 SLP178 60000 T01020093 55002 $
Observed
Apr-5 @ 08:56 UTC
Wind
  • 340° at 3 KTS
Visibility
Flight Rules
VFR
Cloud Levels
  • Clear skies
Temperature
10°C / 50°F
Dewpoint
C / 48°F
Humidity
94%
Altimeter
30.05" Hg
Pressure
1017.62 hPa